Time;durP1;ratioP1;P1;durP2;ratioP2;P2;SDS_P1;SDS_P2;PMS_P1;PMS_P2;Temp;Humidity;BMP_temperature;BMP_pressure;BME280_temperature;BME280_humidity;BME280_pressure;Samples;Min_cycle;Max_cycle;Signal;HPM_P1;HPM_P2
2023/09/03 00:02:13;;;;;;;7.88;5.85;;;;;;;18.73;72.87;95112.41;4992083;28;20279;-74
2023/09/03 00:04:40;;;;;;;7.90;6.05;;;;;;;18.75;72.70;95110.09;4994773;28;20240;-73
2023/09/03 00:07:07;;;;;;;14.43;5.65;;;;;;;18.80;73.21;95118.03;4995080;28;20206;-73
2023/09/03 00:09:34;;;;;;;8.10;6.20;;;;;;;18.86;73.10;95115.78;4995213;28;20555;-73
2023/09/03 00:12:03;;;;;;;12.57;6.43;;;;;;;18.84;73.39;95113.38;4994387;28;20205;-74
2023/09/03 00:14:30;;;;;;;9.82;6.07;;;;;;;18.82;73.03;95115.72;4994984;28;20241;-74
2023/09/03 00:16:56;;;;;;;9.48;6.75;;;;;;;18.72;73.60;95122.59;4994213;28;20653;-73
2023/09/03 00:19:24;;;;;;;10.77;6.93;;;;;;;18.68;73.62;95124.50;4995114;28;20209;-73
2023/09/03 00:21:50;;;;;;;9.85;6.18;;;;;;;18.59;73.50;95123.94;4993977;28;20301;-74
2023/09/03 00:24:17;;;;;;;10.13;6.63;;;;;;;18.61;73.44;95126.31;4994504;28;20220;-74
2023/09/03 00:26:44;;;;;;;10.32;6.15;;;;;;;18.59;73.32;95128.63;4994318;28;20213;-73
2023/09/03 00:29:12;;;;;;;10.00;5.90;;;;;;;18.49;73.08;95138.25;4994796;28;20206;-73
2023/09/03 00:31:39;;;;;;;7.95;5.25;;;;;;;18.57;72.76;95136.44;4994268;28;20210;-73
2023/09/03 00:34:06;;;;;;;8.07;5.50;;;;;;;18.51;73.16;95143.38;4994327;28;20218;-73
2023/09/03 00:36:33;;;;;;;8.98;6.80;;;;;;;18.41;72.53;95139.28;4994415;28;20213;-73
2023/09/03 00:39:00;;;;;;;7.93;5.60;;;;;;;18.37;72.60;95141.97;4994529;28;20205;-73
2023/09/03 00:41:26;;;;;;;11.90;6.28;;;;;;;18.32;72.86;95139.50;4994118;28;20630;-73
2023/09/03 00:43:53;;;;;;;10.18;5.93;;;;;;;18.35;73.76;95143.47;4994273;28;20232;-73
2023/09/03 00:46:21;;;;;;;8.50;6.18;;;;;;;18.25;74.07;95136.66;4994080;28;20220;-73
2023/09/03 00:48:48;;;;;;;7.45;5.20;;;;;;;17.96;74.22;95134.53;4994154;28;20214;-73
2023/09/03 00:51:16;;;;;;;7.75;5.22;;;;;;;18.05;74.22;95132.34;4994115;28;20288;-73
2023/09/03 00:53:48;;;;;;;8.10;5.78;;;;;;;17.86;74.30;95129.63;4993807;28;20260;-73
2023/09/03 00:56:15;;;;;;;8.68;5.35;;;;;;;17.82;74.36;95126.00;4994289;28;20557;-73
2023/09/03 00:58:43;;;;;;;7.53;5.13;;;;;;;17.79;74.25;95119.28;4993847;28;20594;-74
2023/09/03 01:01:10;;;;;;;13.27;5.88;;;;;;;17.86;75.07;95113.19;4993231;28;20508;-74
2023/09/03 01:03:38;;;;;;;9.98;5.70;;;;;;;17.95;74.66;95116.47;4993873;28;20220;-73
2023/09/03 01:06:06;;;;;;;8.05;5.57;;;;;;;17.97;74.82;95116.91;4993853;28;20205;-73
2023/09/03 01:08:33;;;;;;;8.23;5.40;;;;;;;17.92;74.31;95117.19;4993829;28;20221;-72
2023/09/03 01:11:07;;;;;;;10.65;6.47;;;;;;;17.99;75.46;95111.88;4993428;28;20217;-73
2023/09/03 01:13:41;;;;;;;9.20;5.20;;;;;;;17.86;76.22;95118.66;4993900;28;20237;-74
2023/09/03 01:16:13;;;;;;;8.48;5.78;;;;;;;17.95;75.65;95111.00;4993705;28;20234;-73
2023/09/03 01:18:43;;;;;;;8.23;6.10;;;;;;;17.91;76.10;95112.88;4993613;28;20194;-73
2023/09/03 01:21:39;;;;;;;9.40;5.75;;;;;;;17.82;75.89;95123.28;4993259;28;20256;-73
2023/09/03 01:24:24;;;;;;;10.75;5.75;;;;;;;17.79;75.30;95113.03;4993454;28;20604;-73
2023/09/03 01:27:07;;;;;;;9.95;7.07;;;;;;;17.75;75.51;95127.47;4993467;28;20638;-74
2023/09/03 01:29:36;;;;;;;10.27;8.02;;;;;;;17.74;75.26;95117.66;4993335;28;20311;-76
2023/09/03 01:32:05;;;;;;;8.43;5.75;;;;;;;17.66;75.92;95120.59;4993334;28;20213;-76
2023/09/03 01:34:33;;;;;;;7.32;5.20;;;;;;;17.55;76.23;95125.03;4993297;28;20209;-76
2023/09/03 01:37:00;;;;;;;7.50;5.03;;;;;;;17.60;75.95;95117.34;4992929;28;20206;-76
2023/09/03 01:39:27;;;;;;;7.20;5.57;;;;;;;17.61;75.59;95124.41;4993370;28;20678;-76
2023/09/03 01:41:54;;;;;;;8.02;5.60;;;;;;;17.59;75.14;95120.44;4993044;28;20229;-76
2023/09/03 01:44:21;;;;;;;7.75;5.90;;;;;;;17.63;75.28;95122.09;4993013;28;20205;-76
2023/09/03 01:46:51;;;;;;;9.57;5.65;;;;;;;17.67;75.74;95122.19;4992889;28;20264;-76
2023/09/03 01:49:30;;;;;;;7.20;5.05;;;;;;;17.59;75.28;95114.97;4993186;28;20201;-76
2023/09/03 01:52:06;;;;;;;13.55;5.65;;;;;;;17.68;75.43;95121.03;4992717;28;20194;-76
2023/09/03 01:54:39;;;;;;;9.63;5.75;;;;;;;17.49;76.47;95119.06;4993280;28;20579;-76
2023/09/03 01:57:11;;;;;;;8.27;5.47;;;;;;;17.45;76.38;95129.16;4992572;28;20369;-76
2023/09/03 01:59:42;;;;;;;8.90;6.10;;;;;;;17.30;77.07;95135.47;4992793;28;20198;-76
2023/09/03 02:02:13;;;;;;;8.75;5.57;;;;;;;17.20;77.48;95130.56;4992551;28;20300;-76
2023/09/03 02:04:40;;;;;;;10.10;5.07;;;;;;;17.12;77.50;95128.78;4992765;28;20197;-76
2023/09/03 02:07:07;;;;;;;9.80;5.55;;;;;;;17.14;77.71;95121.00;4992588;28;20260;-76
2023/09/03 02:09:34;;;;;;;9.23;5.32;;;;;;;17.09;78.03;95124.03;4992572;28;20221;-76
2023/09/03 02:12:00;;;;;;;9.50;6.10;;;;;;;17.08;78.33;95122.47;4991999;28;20213;-76
2023/09/03 02:14:28;;;;;;;9.82;6.13;;;;;;;17.08;78.36;95122.47;4992422;28;20596;-76
2023/09/03 02:16:55;;;;;;;8.60;5.22;;;;;;;17.14;78.84;95126.50;4992074;28;20242;-75
2023/09/03 02:19:23;;;;;;;10.50;6.05;;;;;;;17.11;78.37;95122.50;4992559;28;20210;-75
2023/09/03 02:21:50;;;;;;;8.65;5.88;;;;;;;17.15;78.08;95122.59;4992092;28;20649;-76
2023/09/03 02:24:18;;;;;;;7.65;5.28;;;;;;;17.14;78.35;95126.50;4992235;28;20210;-77
2023/09/03 02:26:46;;;;;;;7.68;5.47;;;;;;;17.20;77.91;95116.88;4992345;28;20209;-75
2023/09/03 02:29:13;;;;;;;9.73;5.95;;;;;;;17.25;77.73;95119.31;4992383;28;20658;-76
2023/09/03 02:31:40;;;;;;;8.15;5.53;;;;;;;17.21;77.75;95113.78;4991970;28;20209;-77
2023/09/03 02:34:08;;;;;;;9.63;5.65;;;;;;;17.20;77.63;95114.91;4992388;28;20707;-76
2023/09/03 02:36:36;;;;;;;8.55;5.40;;;;;;;17.18;77.92;95110.94;4992028;28;20224;-76
2023/09/03 02:39:04;;;;;;;8.25;5.15;;;;;;;17.21;77.75;95112.97;4991604;28;20214;-75
2023/09/03 02:41:32;;;;;;;7.45;5.50;;;;;;;17.21;77.85;95110.25;4992064;28;20205;-76
2023/09/03 02:43:59;;;;;;;8.07;6.05;;;;;;;17.17;78.42;95120.31;4992152;28;20666;-75
2023/09/03 02:46:26;;;;;;;8.30;5.95;;;;;;;17.10;78.36;95114.66;4992263;28;20641;-76
2023/09/03 02:48:53;;;;;;;9.13;6.07;;;;;;;17.02;78.72;95125.47;4991705;28;20232;-76
2023/09/03 02:51:20;;;;;;;8.40;5.57;;;;;;;16.97;79.01;95123.00;4992478;28;20543;-77
2023/09/03 02:53:51;;;;;;;9.05;5.55;;;;;;;17.02;78.76;95125.47;4991721;28;20274;-76
2023/09/03 02:56:18;;;;;;;9.52;5.82;;;;;;;17.09;78.07;95124.03;4992100;28;20217;-75
2023/09/03 02:58:47;;;;;;;8.52;6.00;;;;;;;17.14;78.30;95121.00;4991790;28;20205;-76
2023/09/03 03:01:16;;;;;;;10.52;5.70;;;;;;;17.18;78.20;95132.84;4991804;28;20198;-76
2023/09/03 03:03:44;;;;;;;9.02;5.53;;;;;;;17.14;78.54;95127.28;4991577;28;20249;-75
2023/09/03 03:06:11;;;;;;;10.95;5.47;;;;;;;17.17;78.48;95120.31;4991862;28;20346;-76
2023/09/03 03:08:38;;;;;;;9.10;6.35;;;;;;;17.10;79.19;95120.13;4991659;28;20214;-76
2023/09/03 03:11:10;;;;;;;10.57;5.82;;;;;;;17.23;78.70;95113.38;4991644;28;20259;-77
2023/09/03 03:13:39;;;;;;;11.52;6.18;;;;;;;17.16;79.15;95110.50;4991763;28;20581;-75
2023/09/03 03:16:07;;;;;;;9.13;6.35;;;;;;;17.26;79.40;95112.69;4991135;28;20776;-77
2023/09/03 03:18:36;;;;;;;13.20;5.88;;;;;;;17.22;79.48;95118.06;4991604;28;20309;-77
2023/09/03 03:21:07;;;;;;;9.50;5.80;;;;;;;17.16;79.57;95110.50;4991476;28;20229;-77
2023/09/03 03:23:33;;;;;;;10.40;5.93;;;;;;;17.11;79.74;95108.03;4994057;28;20237;-77
2023/09/03 03:26:00;;;;;;;9.80;6.90;;;;;;;17.07;79.95;95109.91;4997946;28;20209;-77
2023/09/03 03:28:31;;;;;;;8.48;5.53;;;;;;;17.00;79.82;95105.84;4998069;28;20240;-78
2023/09/03 03:30:59;;;;;;;10.18;6.20;;;;;;;16.97;79.92;95109.31;4997786;28;20233;-77
2023/09/03 03:33:27;;;;;;;9.10;5.13;;;;;;;16.97;79.89;95114.78;4998338;28;20256;-77
2023/09/03 03:35:54;;;;;;;8.77;5.57;;;;;;;16.96;80.33;95104.97;4997969;28;20618;-77
2023/09/03 03:38:20;;;;;;;8.43;5.30;;;;;;;16.97;80.38;95112.03;4997850;28;20297;-77
2023/09/03 03:40:47;;;;;;;8.45;6.03;;;;;;;16.92;80.47;95109.59;4997596;28;20209;-76
2023/09/03 03:43:14;;;;;;;8.85;5.72;;;;;;;16.96;80.10;95115.91;4997838;28;20284;-77
2023/09/03 03:45:42;;;;;;;15.35;6.50;;;;;;;16.99;79.11;95114.41;4997747;28;20283;-77
2023/09/03 03:48:09;;;;;;;8.98;5.95;;;;;;;16.58;81.06;95121.22;4997836;28;20216;-78
2023/09/03 03:50:36;;;;;;;11.60;6.43;;;;;;;16.52;81.71;95128.13;4997736;28;20213;-76
2023/09/03 03:53:02;;;;;;;9.90;6.00;;;;;;;16.34;82.18;95117.53;4997864;28;20205;-77
2023/09/03 03:55:29;;;;;;;12.90;5.95;;;;;;;16.54;80.94;95117.59;4997749;28;20201;-74
2023/09/03 03:57:56;;;;;;;8.30;5.47;;;;;;;16.62;81.49;95105.72;4998016;28;20213;-74
2023/09/03 04:00:23;;;;;;;7.85;5.28;;;;;;;16.78;80.58;95108.47;4998033;28;20217;-73
2023/09/03 04:02:51;;;;;;;12.60;5.32;;;;;;;16.66;80.90;95110.16;4997534;28;20225;-74
2023/09/03 04:05:18;;;;;;;8.50;5.57;;;;;;;16.69;80.53;95117.63;4998006;28;20208;-75
2023/09/03 04:07:44;;;;;;;9.48;5.82;;;;;;;16.75;80.30;95115.44;4997603;28;20217;-74
2023/09/03 04:10:11;;;;;;;8.85;5.88;;;;;;;16.85;80.02;95120.34;4997358;28;20209;-74
2023/09/03 04:12:38;;;;;;;8.90;5.68;;;;;;;16.73;79.50;95128.66;4997612;28;20370;-74
2023/09/03 04:15:07;;;;;;;9.18;5.88;;;;;;;16.76;79.94;95133.44;4997529;28;20218;-74
2023/09/03 04:17:33;;;;;;;7.75;5.55;;;;;;;17.80;77.13;95131.06;4997745;28;20312;-75
2023/09/03 04:20:02;;;;;;;11.00;5.75;;;;;;;18.78;73.17;95114.84;4997483;28;20245;-75
2023/09/03 04:22:29;;;;;;;7.13;5.53;;;;;;;19.60;69.90;95116.84;4997462;28;20284;-75
2023/09/03 04:24:56;;;;;;;8.50;5.75;;;;;;;20.17;68.13;95112.03;4997201;28;20205;-74
2023/09/03 04:27:23;;;;;;;10.18;6.07;;;;;;;20.52;66.10;95106.91;4997747;28;20217;-75
2023/09/03 04:29:50;;;;;;;9.48;6.28;;;;;;;20.85;65.88;95107.97;4997787;28;20659;-75
2023/09/03 04:32:17;;;;;;;9.10;6.47;;;;;;;21.79;63.19;95100.72;4997453;28;20206;-74
2023/09/03 04:34:44;;;;;;;13.13;6.53;;;;;;;22.83;59.93;95090.72;4996278;28;20237;-75
2023/09/03 04:37:12;;;;;;;12.85;5.90;;;;;;;23.52;57.92;95093.03;4994071;28;20606;-75
2023/09/03 04:39:39;;;;;;;11.60;6.90;;;;;;;23.85;56.27;95089.78;4994335;28;20232;-75
2023/09/03 04:42:07;;;;;;;8.70;7.32;;;;;;;24.36;54.39;95080.06;4994662;28;20556;-75
2023/09/03 04:44:37;;;;;;;8.43;6.25;;;;;;;25.04;52.85;95081.16;4994574;28;20697;-75
2023/09/03 04:47:05;;;;;;;8.85;6.20;;;;;;;25.27;51.71;95077.81;4994363;28;20212;-75
2023/09/03 04:49:32;;;;;;;7.43;5.65;;;;;;;25.98;50.46;95088.13;4994547;28;20716;-75
2023/09/03 04:51:59;;;;;;;9.27;7.88;;;;;;;26.21;50.02;95079.13;4994236;28;20201;-75
2023/09/03 04:54:27;;;;;;;8.40;7.25;;;;;;;26.27;49.84;95082.19;4994069;28;20209;-75
2023/09/03 04:56:54;;;;;;;10.68;6.80;;;;;;;26.44;49.15;95075.66;4993747;28;20209;-75
2023/09/03 04:59:21;;;;;;;8.75;6.25;;;;;;;26.90;48.22;95064.63;4994081;28;20220;-75
2023/09/03 05:01:48;;;;;;;12.40;6.50;;;;;;;26.53;47.93;95073.13;4994132;28;20202;-74
2023/09/03 05:04:14;;;;;;;9.13;7.70;;;;;;;26.13;49.19;95072.84;4994184;28;20229;-73
2023/09/03 05:06:41;;;;;;;9.43;7.90;;;;;;;26.36;49.29;95063.06;4993705;28;20233;-73
2023/09/03 05:09:08;;;;;;;8.40;7.35;;;;;;;26.79;48.56;95058.41;4993923;28;20264;-73
2023/09/03 05:11:39;;;;;;;10.43;7.53;;;;;;;27.54;46.58;95052.38;4993579;28;20218;-73
2023/09/03 05:14:06;;;;;;;11.30;7.65;;;;;;;27.96;45.30;95047.19;4993892;28;20613;-73
2023/09/03 05:16:33;;;;;;;9.88;7.43;;;;;;;28.45;43.75;95052.94;4993538;28;20629;-73
2023/09/03 05:19:04;;;;;;;9.15;7.55;;;;;;;28.26;44.78;95052.56;4993852;28;20554;-73
2023/09/03 05:21:31;;;;;;;8.60;7.43;;;;;;;29.20;42.68;95046.38;4993885;28;20200;-74
2023/09/03 05:23:58;;;;;;;9.65;8.15;;;;;;;29.34;42.22;95046.00;4993349;28;20224;-74
2023/09/03 05:26:25;;;;;;;9.60;7.60;;;;;;;28.82;43.01;95049.72;4993319;28;20209;-73
2023/09/03 05:28:53;;;;;;;11.57;8.23;;;;;;;28.49;43.09;95045.28;4993300;28;20221;-74
2023/09/03 05:31:20;;;;;;;10.00;7.93;;;;;;;28.97;42.86;95050.91;4993317;28;20213;-74
2023/09/03 05:33:46;;;;;;;13.02;8.15;;;;;;;29.23;41.95;95053.88;4993626;28;20585;-74
2023/09/03 05:36:13;;;;;;;10.88;8.48;;;;;;;29.51;41.37;95055.16;4993067;28;20638;-74
2023/09/03 05:38:42;;;;;;;9.32;8.32;;;;;;;29.68;41.19;95060.25;4993630;28;20620;-74
2023/09/03 05:41:09;;;;;;;9.10;7.95;;;;;;;30.26;40.59;95049.03;4992997;28;20560;-74
2023/09/03 05:43:37;;;;;;;10.00;8.13;;;;;;;30.68;38.98;95052.56;4975797;28;20317;-74
2023/09/03 05:46:05;;;;;;;9.52;8.00;;;;;;;31.08;38.51;95058.47;4992474;28;20213;-74
2023/09/03 05:48:32;;;;;;;9.85;8.30;;;;;;;31.30;38.13;95052.19;4993397;28;20206;-74
2023/09/03 05:51:03;;;;;;;9.68;8.68;;;;;;;31.57;37.81;95058.03;4992854;28;20209;-74
2023/09/03 05:53:30;;;;;;;10.40;8.40;;;;;;;31.28;38.56;95054.69;4993410;28;20194;-74
2023/09/03 05:56:04;;;;;;;9.23;8.27;;;;;;;31.51;38.06;95057.06;4992756;28;20252;-75
2023/09/03 05:58:31;;;;;;;10.38;8.15;;;;;;;30.80;39.42;95072.59;4993162;28;20244;-74
2023/09/03 06:00:58;;;;;;;9.48;8.48;;;;;;;30.71;39.35;95074.06;4992641;28;20197;-75
2023/09/03 06:03:26;;;;;;;10.93;8.95;;;;;;;31.02;38.71;95071.50;4992717;28;20233;-74
2023/09/03 06:05:53;;;;;;;12.63;8.45;;;;;;;29.85;40.51;95074.19;4992589;28;20245;-75
2023/09/03 06:08:20;;;;;;;11.15;8.13;;;;;;;30.40;39.86;95073.78;4992677;28;20217;-74
2023/09/03 06:10:47;;;;;;;11.55;8.95;;;;;;;31.02;38.54;95071.50;4992832;28;20210;-74
2023/09/03 06:13:13;;;;;;;15.23;8.57;;;;;;;30.89;38.87;95079.09;4992102;28;20226;-74
2023/09/03 06:15:40;;;;;;;11.27;8.18;;;;;;;30.82;38.45;95084.91;4992461;28;20321;-74
2023/09/03 06:18:07;;;;;;;8.95;8.05;;;;;;;29.69;40.67;95078.59;4992706;28;20194;-74
2023/09/03 06:20:37;;;;;;;12.38;8.38;;;;;;;29.98;40.36;95083.41;4992786;28;20609;-74
2023/09/03 06:23:04;;;;;;;9.77;8.35;;;;;;;29.78;40.21;95088.34;4992135;28;20264;-74
2023/09/03 06:25:31;;;;;;;12.38;8.00;;;;;;;29.83;40.84;95093.38;4992343;28;20563;-73
2023/09/03 06:27:58;;;;;;;10.82;8.85;;;;;;;28.82;41.59;95085.97;4992253;28;20205;-73
2023/09/03 06:30:25;;;;;;;12.70;8.88;;;;;;;29.38;40.67;95085.81;4992567;28;20671;-75
2023/09/03 06:32:52;;;;;;;11.18;7.85;;;;;;;30.57;39.54;95091.28;4992628;28;20210;-75
2023/09/03 06:35:19;;;;;;;11.20;8.50;;;;;;;31.79;37.15;95081.31;4992463;28;20209;-74
2023/09/03 06:37:47;;;;;;;9.18;8.05;;;;;;;30.69;38.78;95092.53;4992001;28;20256;-74
2023/09/03 06:40:15;;;;;;;9.32;7.75;;;;;;;29.94;40.17;95096.66;4991999;28;20304;-74
2023/09/03 06:42:42;;;;;;;10.63;8.13;;;;;;;30.35;39.20;95096.69;4992189;28;20285;-74
2023/09/03 06:45:10;;;;;;;10.25;7.38;;;;;;;31.12;38.05;95096.81;4991818;28;20226;-74
2023/09/03 06:47:38;;;;;;;11.27;7.85;;;;;;;31.41;37.79;95080.63;4992077;28;20209;-74
2023/09/03 06:50:06;;;;;;;11.05;7.88;;;;;;;32.06;35.92;95091.97;4991944;28;20202;-74
2023/09/03 06:52:33;;;;;;;11.68;8.32;;;;;;;30.36;38.93;95101.06;4992090;28;20245;-74
2023/09/03 06:55:01;;;;;;;13.20;8.23;;;;;;;30.18;39.18;95100.81;4991370;28;20551;-74
2023/09/03 06:57:28;;;;;;;10.63;8.40;;;;;;;29.78;39.92;95091.16;4991740;28;20213;-74
2023/09/03 06:59:55;;;;;;;9.35;7.97;;;;;;;29.91;39.89;95100.38;4991220;28;20212;-75
2023/09/03 07:02:23;;;;;;;12.27;7.80;;;;;;;30.53;39.04;95093.38;4991700;28;20206;-74
2023/09/03 07:04:50;;;;;;;11.00;8.05;;;;;;;30.69;38.33;95093.31;4974589;28;20225;-74
2023/09/03 07:07:17;;;;;;;10.00;7.95;;;;;;;31.35;37.33;95088.03;4991797;28;20201;-74
2023/09/03 07:09:44;;;;;;;10.15;7.78;;;;;;;31.63;37.16;95084.25;4991959;28;20631;-75
2023/09/03 07:12:12;;;;;;;10.25;7.60;;;;;;;31.78;36.73;95087.38;4973705;28;20209;-75
2023/09/03 07:14:39;;;;;;;9.48;7.47;;;;;;;31.82;36.44;95088.03;4991935;28;20205;-75
2023/09/03 07:17:06;;;;;;;9.90;8.07;;;;;;;31.48;37.92;95090.78;4991266;28;20241;-75
2023/09/03 07:19:33;;;;;;;9.02;7.25;;;;;;;29.34;40.24;95090.66;4991985;28;20566;-74
2023/09/03 07:22:00;;;;;;;9.05;8.15;;;;;;;28.71;41.76;95096.53;4991582;28;20212;-74
2023/09/03 07:24:26;;;;;;;9.73;7.57;;;;;;;29.85;40.43;95096.53;4991668;28;20554;-74
2023/09/03 07:26:53;;;;;;;10.80;8.45;;;;;;;28.87;41.93;95096.59;4991664;28;20217;-74
2023/09/03 07:29:21;;;;;;;11.25;8.15;;;;;;;29.43;40.99;95093.66;4991122;28;20201;-74
2023/09/03 07:31:48;;;;;;;10.32;7.40;;;;;;;29.88;39.86;95084.47;4992044;28;20220;-74
2023/09/03 07:34:15;;;;;;;10.85;7.68;;;;;;;29.66;40.64;95089.84;4991310;28;20205;-75
2023/09/03 07:36:42;;;;;;;8.48;7.07;;;;;;;30.38;39.34;95090.22;4991706;28;20730;-74
2023/09/03 07:39:10;;;;;;;11.90;7.68;;;;;;;30.27;38.93;95089.75;4991178;28;20206;-75
2023/09/03 07:41:37;;;;;;;8.48;7.10;;;;;;;29.67;40.32;95085.81;4991803;28;20206;-74
2023/09/03 07:44:05;;;;;;;10.40;7.38;;;;;;;29.68;40.32;95093.78;4991484;28;20296;-73
2023/09/03 07:46:33;;;;;;;11.38;7.20;;;;;;;29.90;40.14;95098.78;4991508;28;20213;-75
2023/09/03 07:49:00;;;;;;;8.88;7.00;;;;;;;29.95;41.07;95103.81;4991403;28;20216;-74
2023/09/03 07:51:27;;;;;;;9.90;6.68;;;;;;;29.67;40.61;95097.00;4991501;28;20263;-74
2023/09/03 07:53:54;;;;;;;8.88;7.22;;;;;;;29.88;39.72;95101.25;4991981;28;20686;-74
2023/09/03 07:56:21;;;;;;;8.30;7.03;;;;;;;29.62;39.87;95089.97;4991518;28;20209;-74
2023/09/03 07:58:48;;;;;;;8.32;6.50;;;;;;;29.47;41.49;95085.97;4991265;28;20240;-74
2023/09/03 08:01:16;;;;;;;8.10;7.03;;;;;;;29.02;41.30;95096.25;4991535;28;20210;-74
2023/09/03 08:03:44;;;;;;;10.32;6.90;;;;;;;28.08;43.55;95102.25;4991039;28;20233;-73
2023/09/03 08:06:13;;;;;;;7.82;6.35;;;;;;;27.47;44.85;95105.38;4991137;28;20217;-73
2023/09/03 08:08:40;;;;;;;8.93;6.50;;;;;;;27.64;43.65;95099.94;4991061;28;20232;-74
2023/09/03 08:11:07;;;;;;;7.95;5.97;;;;;;;27.31;44.04;95099.72;4994598;28;20598;-74
2023/09/03 08:13:34;;;;;;;9.43;6.28;;;;;;;27.92;43.95;95093.84;4994952;28;20283;-74
2023/09/03 08:16:01;;;;;;;8.43;6.22;;;;;;;28.04;42.53;95100.75;4994700;28;20741;-72
2023/09/03 08:18:27;;;;;;;8.10;5.88;;;;;;;27.80;43.03;95086.13;4994817;28;20198;-79
2023/09/03 08:20:55;;;;;;;9.23;6.28;;;;;;;27.94;42.80;95086.63;4994842;28;20205;-78
2023/09/03 08:23:22;;;;;;;9.05;6.03;;;;;;;28.27;42.25;95093.16;4994725;28;20210;-78
2023/09/03 08:25:49;;;;;;;8.20;6.20;;;;;;;27.95;42.59;95082.63;4995238;28;20260;-78
2023/09/03 08:28:16;;;;;;;6.47;5.82;;;;;;;28.19;41.97;95085.34;4994816;28;20639;-77
2023/09/03 08:30:43;;;;;;;8.75;6.30;;;;;;;28.27;40.43;95082.00;4994361;28;20692;-78
2023/09/03 08:33:09;;;;;;;6.85;5.60;;;;;;;28.08;40.45;95082.75;4994276;28;20275;-78
2023/09/03 08:35:37;;;;;;;6.10;5.47;;;;;;;28.49;38.41;95075.94;4994924;28;20642;-78
2023/09/03 08:38:05;;;;;;;8.93;5.05;;;;;;;28.30;37.27;95072.75;4994294;28;20264;-79
2023/09/03 08:40:33;;;;;;;6.03;4.57;;;;;;;28.45;37.18;95070.44;4994807;28;20588;-79
2023/09/03 08:43:04;;;;;;;6.50;5.72;;;;;;;28.18;39.41;95078.16;4994105;28;20201;-77
2023/09/03 08:45:33;;;;;;;7.95;5.65;;;;;;;28.01;40.22;95074.56;4994175;28;20210;-78
2023/09/03 08:48:00;;;;;;;10.82;5.88;;;;;;;27.50;40.34;95068.34;4994338;28;20206;-77
2023/09/03 08:50:28;;;;;;;8.02;5.95;;;;;;;28.00;39.87;95061.84;4994722;28;20617;-79
2023/09/03 08:52:56;;;;;;;5.90;5.18;;;;;;;28.18;38.95;95053.91;4994437;28;20210;-79
2023/09/03 08:55:29;;;;;;;8.02;5.30;;;;;;;28.77;36.93;95052.19;4994226;28;20201;-79
2023/09/03 08:57:56;;;;;;;6.28;4.97;;;;;;;28.82;36.68;95044.13;4994511;28;20190;-79
2023/09/03 09:00:23;;;;;;;5.90;4.80;;;;;;;29.04;35.84;95043.59;4994018;28;20528;-79
2023/09/03 09:02:51;;;;;;;6.28;5.07;;;;;;;29.20;36.37;95040.78;4993957;28;20210;-79
2023/09/03 09:05:19;;;;;;;7.70;5.65;;;;;;;29.21;37.05;95034.00;4993747;28;20233;-79
2023/09/03 09:07:47;;;;;;;6.32;5.68;;;;;;;29.43;37.40;95032.22;4994335;28;20213;-78
2023/09/03 09:10:18;;;;;;;7.22;5.90;;;;;;;29.42;37.42;95030.66;4993835;28;20210;-80
2023/09/03 09:12:53;;;;;;;7.10;5.53;;;;;;;29.23;37.57;95014.81;4993980;28;20226;-79
2023/09/03 09:15:19;;;;;;;7.68;5.55;;;;;;;29.66;36.83;95023.59;4993649;28;20213;-78
2023/09/03 09:17:48;;;;;;;8.40;5.65;;;;;;;29.50;36.66;95020.88;4994123;28;20220;-80
2023/09/03 09:20:15;;;;;;;5.70;5.10;;;;;;;28.35;37.16;95037.22;4994015;28;20376;-78
2023/09/03 09:22:43;;;;;;;6.90;5.57;;;;;;;28.35;36.84;95026.09;4993446;28;20308;-78
2023/09/03 09:25:17;;;;;;;5.70;5.10;;;;;;;28.19;36.63;95024.84;4993710;28;20229;-78
2023/09/03 09:27:44;;;;;;;6.00;5.30;;;;;;;28.09;36.72;95025.81;4993993;28;20284;-81
2023/09/03 09:30:15;;;;;;;6.20;5.38;;;;;;;28.20;35.87;95020.84;4993438;28;20209;-81
2023/09/03 09:32:42;;;;;;;5.47;4.63;;;;;;;28.32;35.27;95015.78;4993457;28;20190;-77
2023/09/03 09:35:10;;;;;;;7.25;4.93;;;;;;;27.97;35.49;95022.91;4993153;28;20218;-80
2023/09/03 09:37:41;;;;;;;5.78;5.18;;;;;;;28.68;35.08;95010.19;4993932;28;20209;-80
2023/09/03 09:40:09;;;;;;;5.82;5.18;;;;;;;29.04;34.37;94994.16;4993312;28;20209;-82
2023/09/03 09:42:52;;;;;;;6.03;4.78;;;;;;;29.45;33.68;95001.06;4993633;28;20618;-79
2023/09/03 09:45:20;;;;;;;5.90;5.00;;;;;;;29.70;32.82;95001.16;4992968;28;20233;-79
2023/09/03 09:47:47;;;;;;;6.15;5.22;;;;;;;29.72;33.12;95003.50;4993056;28;20284;-80
2023/09/03 09:50:14;;;;;;;6.93;5.20;;;;;;;28.94;32.77;94996.00;4993156;28;20214;-79
2023/09/03 09:52:41;;;;;;;5.93;5.30;;;;;;;28.66;33.69;94996.69;4993514;28;20594;-80
2023/09/03 09:55:17;;;;;;;6.47;5.45;;;;;;;28.15;34.49;94995.47;4993423;28;20662;-79
2023/09/03 09:57:43;;;;;;;8.25;5.75;;;;;;;27.99;35.39;94990.63;4993392;28;20204;-79
2023/09/03 10:00:12;;;;;;;6.82;5.47;;;;;;;28.48;34.28;94979.59;4993112;28;20614;-78
2023/09/03 10:02:40;;;;;;;6.00;5.38;;;;;;;29.13;33.31;94979.56;4992893;28;20201;-79
2023/09/03 10:05:10;;;;;;;6.43;5.35;;;;;;;29.30;33.46;94972.72;4992567;28;20225;-77
2023/09/03 10:07:38;;;;;;;6.22;5.05;;;;;;;28.53;33.65;94962.34;4993280;28;20602;-79
2023/09/03 10:10:06;;;;;;;6.22;5.53;;;;;;;28.80;32.98;94957.31;4992568;28;20248;-78
2023/09/03 10:12:34;;;;;;;9.35;5.43;;;;;;;29.20;33.31;94948.69;4993046;28;20642;-79
2023/09/03 10:15:00;;;;;;;6.72;5.22;;;;;;;29.37;33.12;94955.81;4992720;28;20205;-80
2023/09/03 10:17:28;;;;;;;6.03;5.43;;;;;;;29.68;32.55;94942.94;4974730;28;20683;-79
2023/09/03 10:20:04;;;;;;;6.03;4.82;;;;;;;29.54;32.34;94951.72;4992942;28;20217;-79
2023/09/03 10:22:32;;;;;;;5.25;4.72;;;;;;;29.12;30.90;94950.09;4992950;28;20244;-78
2023/09/03 10:25:03;;;;;;;5.30;4.65;;;;;;;28.90;31.64;94936.72;4992777;28;20221;-78
2023/09/03 10:27:34;;;;;;;5.55;4.95;;;;;;;29.35;31.73;94941.50;4993071;28;20566;-79
2023/09/03 10:30:05;;;;;;;6.30;5.00;;;;;;;29.34;30.38;94939.94;4992612;28;20214;-80
2023/09/03 10:32:32;;;;;;;5.28;4.55;;;;;;;28.99;31.06;94945.25;4992029;28;20201;-79
2023/09/03 10:35:08;;;;;;;6.10;4.05;;;;;;;29.06;31.01;94935.13;4992683;28;20206;-78
2023/09/03 10:37:37;;;;;;;6.63;4.38;;;;;;;29.02;31.91;94937.22;4992363;28;20252;-79
2023/09/03 10:40:18;;;;;;;6.88;4.53;;;;;;;29.11;31.74;94931.81;4992545;28;20262;-80
2023/09/03 10:42:45;;;;;;;5.00;4.45;;;;;;;29.54;31.54;94932.19;4992554;28;20232;-80
2023/09/03 10:45:14;;;;;;;8.00;4.88;;;;;;;29.96;31.32;94918.19;4992400;28;20291;-79
2023/09/03 10:47:59;;;;;;;6.00;4.75;;;;;;;30.30;30.35;94925.94;4992373;28;20268;-78
2023/09/03 10:50:50;;;;;;;5.97;4.85;;;;;;;30.57;30.23;94903.13;4992055;28;20252;-79
2023/09/03 10:53:37;;;;;;;7.22;4.90;;;;;;;30.64;30.46;94894.47;4988450;28;20209;-79
2023/09/03 10:56:12;;;;;;;6.57;4.57;;;;;;;30.54;30.26;94890.81;4992980;28;20202;-78
2023/09/03 10:58:58;;;;;;;5.25;4.20;;;;;;;30.18;30.34;94890.38;4992207;28;20217;-79
2023/09/03 11:01:30;;;;;;;5.38;4.53;;;;;;;29.74;31.01;94903.31;4992069;28;20218;-77
2023/09/03 11:03:57;;;;;;;5.95;4.05;;;;;;;29.90;31.39;94886.44;4991661;28;20190;-78
2023/09/03 11:06:27;;;;;;;5.85;4.68;;;;;;;30.22;30.64;94880.63;4991753;28;20594;-81
2023/09/03 11:09:24;;;;;;;5.93;4.25;;;;;;;30.66;30.52;94876.00;4992461;28;20657;-79
2023/09/03 11:11:51;;;;;;;4.45;3.92;;;;;;;30.99;30.08;94868.06;4992009;28;20224;-79
2023/09/03 11:14:18;;;;;;;5.00;4.20;;;;;;;30.28;30.28;94878.84;4991528;28;20226;-78
2023/09/03 11:16:45;;;;;;;4.90;3.92;;;;;;;30.22;30.55;94877.06;4991897;28;20237;-81
2023/09/03 11:19:11;;;;;;;4.38;3.97;;;;;;;29.79;31.48;94880.41;4991662;28;20205;-78
2023/09/03 11:21:40;;;;;;;5.40;4.13;;;;;;;29.86;31.23;94874.59;4991831;28;20198;-78
2023/09/03 11:24:13;;;;;;;4.55;4.03;;;;;;;29.69;31.06;94877.47;4991921;28;20276;-77
2023/09/03 11:26:40;;;;;;;4.30;3.90;;;;;;;29.76;31.29;94870.13;4991875;28;20237;-78
2023/09/03 11:29:19;;;;;;;4.30;3.90;;;;;;;29.50;30.85;94858.16;4991909;28;20213;-80
2023/09/03 11:31:47;;;;;;;4.97;4.47;;;;;;;29.68;31.52;94863.94;4992113;28;20197;-80
2023/09/03 11:34:17;;;;;;;5.38;3.80;;;;;;;29.93;32.67;94855.59;4991445;28;20806;-81
2023/09/03 11:36:45;;;;;;;4.65;3.90;;;;;;;30.17;30.57;94849.69;4992074;28;20631;-79
2023/09/03 11:39:16;;;;;;;4.50;3.75;;;;;;;30.17;31.20;94844.88;4991690;28;20205;-79